sensor_id;sensor_type;location;lat;lon;timestamp;P1;durP1;ratioP1;P2;durP2;ratioP2
11537;SDS011;50159;49.426;11.182;2022-10-23T00:01:34;5.30;;;3.03;;
11537;SDS011;50159;49.426;11.182;2022-10-23T00:04:14;5.20;;;3.03;;
11537;SDS011;50159;49.426;11.182;2022-10-23T00:06:44;6.03;;;3.20;;
11537;SDS011;50159;49.426;11.182;2022-10-23T00:09:13;4.17;;;2.90;;
11537;SDS011;50159;49.426;11.182;2022-10-23T00:11:43;3.27;;;2.97;;
11537;SDS011;50159;49.426;11.182;2022-10-23T00:14:13;7.77;;;3.30;;
11537;SDS011;50159;49.426;11.182;2022-10-23T00:16:41;8.37;;;2.97;;
11537;SDS011;50159;49.426;11.182;2022-10-23T00:19:08;5.33;;;2.70;;
11537;SDS011;50159;49.426;11.182;2022-10-23T00:21:35;3.47;;;3.13;;
11537;SDS011;50159;49.426;11.182;2022-10-23T00:24:02;6.10;;;3.10;;
11537;SDS011;50159;49.426;11.182;2022-10-23T00:26:30;2.73;;;2.63;;
11537;SDS011;50159;49.426;11.182;2022-10-23T00:28:56;3.77;;;2.53;;
11537;SDS011;50159;49.426;11.182;2022-10-23T00:31:23;3.17;;;2.57;;
11537;SDS011;50159;49.426;11.182;2022-10-23T00:33:51;3.53;;;2.73;;
11537;SDS011;50159;49.426;11.182;2022-10-23T00:36:19;3.93;;;2.87;;
11537;SDS011;50159;49.426;11.182;2022-10-23T00:38:47;4.97;;;3.13;;
11537;SDS011;50159;49.426;11.182;2022-10-23T00:41:17;6.33;;;3.07;;
11537;SDS011;50159;49.426;11.182;2022-10-23T00:43:55;5.40;;;3.50;;
11537;SDS011;50159;49.426;11.182;2022-10-23T00:46:47;4.23;;;3.60;;
11537;SDS011;50159;49.426;11.182;2022-10-23T00:49:14;3.90;;;3.50;;
11537;SDS011;50159;49.426;11.182;2022-10-23T00:51:43;3.77;;;3.47;;
11537;SDS011;50159;49.426;11.182;2022-10-23T00:54:15;4.07;;;3.70;;
11537;SDS011;50159;49.426;11.182;2022-10-23T00:56:51;5.07;;;3.70;;
11537;SDS011;50159;49.426;11.182;2022-10-23T00:59:23;6.43;;;4.17;;
11537;SDS011;50159;49.426;11.182;2022-10-23T01:01:50;3.93;;;3.63;;
11537;SDS011;50159;49.426;11.182;2022-10-23T01:04:17;5.07;;;4.50;;
11537;SDS011;50159;49.426;11.182;2022-10-23T01:12:15;5.90;;;4.23;;
11537;SDS011;50159;49.426;11.182;2022-10-23T01:15:02;5.63;;;4.10;;
11537;SDS011;50159;49.426;11.182;2022-10-23T01:29:33;5.00;;;3.63;;
11537;SDS011;50159;49.426;11.182;2022-10-23T01:35:26;6.13;;;3.73;;
11537;SDS011;50159;49.426;11.182;2022-10-23T01:38:08;3.60;;;3.30;;
11537;SDS011;50159;49.426;11.182;2022-10-23T01:41:38;6.23;;;3.37;;
11537;SDS011;50159;49.426;11.182;2022-10-23T01:43:53;4.97;;;3.53;;
11537;SDS011;50159;49.426;11.182;2022-10-23T01:46:29;4.37;;;3.87;;
11537;SDS011;50159;49.426;11.182;2022-10-23T01:49:00;3.40;;;3.10;;
11537;SDS011;50159;49.426;11.182;2022-10-23T01:51:30;3.50;;;3.20;;
11537;SDS011;50159;49.426;11.182;2022-10-23T01:54:01;4.00;;;3.27;;
11537;SDS011;50159;49.426;11.182;2022-10-23T01:56:34;5.43;;;3.13;;
11537;SDS011;50159;49.426;11.182;2022-10-23T01:59:09;3.27;;;3.07;;
11537;SDS011;50159;49.426;11.182;2022-10-23T02:01:42;3.27;;;3.07;;
11537;SDS011;50159;49.426;11.182;2022-10-23T02:04:14;6.00;;;3.07;;
11537;SDS011;50159;49.426;11.182;2022-10-23T02:06:55;3.27;;;3.07;;
11537;SDS011;50159;49.426;11.182;2022-10-23T02:09:22;4.47;;;2.80;;
11537;SDS011;50159;49.426;11.182;2022-10-23T02:11:51;3.30;;;3.00;;
11537;SDS011;50159;49.426;11.182;2022-10-23T02:20:20;2.87;;;2.63;;
11537;SDS011;50159;49.426;11.182;2022-10-23T02:23:00;3.40;;;3.10;;
11537;SDS011;50159;49.426;11.182;2022-10-23T02:26:01;5.73;;;2.87;;
11537;SDS011;50159;49.426;11.182;2022-10-23T02:28:45;3.43;;;3.13;;
11537;SDS011;50159;49.426;11.182;2022-10-23T02:31:21;2.67;;;2.57;;
11537;SDS011;50159;49.426;11.182;2022-10-23T02:33:49;3.20;;;3.00;;
11537;SDS011;50159;49.426;11.182;2022-10-23T02:36:16;2.93;;;2.70;;
11537;SDS011;50159;49.426;11.182;2022-10-23T02:38:45;3.40;;;2.93;;
11537;SDS011;50159;49.426;11.182;2022-10-23T02:41:30;3.00;;;2.80;;
11537;SDS011;50159;49.426;11.182;2022-10-23T02:44:15;2.83;;;2.70;;
11537;SDS011;50159;49.426;11.182;2022-10-23T02:53:16;2.73;;;2.63;;
11537;SDS011;50159;49.426;11.182;2022-10-23T02:56:12;3.73;;;3.43;;
11537;SDS011;50159;49.426;11.182;2022-10-23T03:01:54;3.50;;;2.63;;
11537;SDS011;50159;49.426;11.182;2022-10-23T03:04:28;3.60;;;3.27;;
11537;SDS011;50159;49.426;11.182;2022-10-23T03:06:57;3.03;;;2.70;;
11537;SDS011;50159;49.426;11.182;2022-10-23T03:09:25;2.53;;;2.43;;
11537;SDS011;50159;49.426;11.182;2022-10-23T03:11:52;3.10;;;2.90;;
11537;SDS011;50159;49.426;11.182;2022-10-23T03:14:19;3.27;;;2.93;;
11537;SDS011;50159;49.426;11.182;2022-10-23T03:16:46;2.63;;;2.50;;
11537;SDS011;50159;49.426;11.182;2022-10-23T03:19:12;4.03;;;2.53;;
11537;SDS011;50159;49.426;11.182;2022-10-23T03:21:39;2.83;;;2.70;;
11537;SDS011;50159;49.426;11.182;2022-10-23T03:24:06;7.20;;;2.80;;
11537;SDS011;50159;49.426;11.182;2022-10-23T03:26:33;2.90;;;2.60;;
11537;SDS011;50159;49.426;11.182;2022-10-23T03:29:00;3.00;;;2.80;;
11537;SDS011;50159;49.426;11.182;2022-10-23T03:31:26;4.20;;;2.47;;
11537;SDS011;50159;49.426;11.182;2022-10-23T03:33:53;2.83;;;2.60;;
11537;SDS011;50159;49.426;11.182;2022-10-23T03:36:20;4.87;;;3.03;;
11537;SDS011;50159;49.426;11.182;2022-10-23T03:38:47;5.33;;;2.90;;
11537;SDS011;50159;49.426;11.182;2022-10-23T03:41:13;5.03;;;2.70;;
11537;SDS011;50159;49.426;11.182;2022-10-23T03:43:40;2.43;;;2.23;;
11537;SDS011;50159;49.426;11.182;2022-10-23T03:46:07;2.70;;;2.50;;
11537;SDS011;50159;49.426;11.182;2022-10-23T03:48:37;2.37;;;2.17;;
11537;SDS011;50159;49.426;11.182;2022-10-23T03:51:04;2.37;;;2.27;;
11537;SDS011;50159;49.426;11.182;2022-10-23T03:53:32;5.80;;;2.43;;
11537;SDS011;50159;49.426;11.182;2022-10-23T03:55:59;2.80;;;2.70;;
11537;SDS011;50159;49.426;11.182;2022-10-23T03:58:25;5.87;;;2.70;;
11537;SDS011;50159;49.426;11.182;2022-10-23T04:00:52;3.50;;;2.60;;
11537;SDS011;50159;49.426;11.182;2022-10-23T04:03:19;3.13;;;2.50;;
11537;SDS011;50159;49.426;11.182;2022-10-23T04:05:46;2.70;;;2.60;;
11537;SDS011;50159;49.426;11.182;2022-10-23T04:08:15;6.07;;;2.67;;
11537;SDS011;50159;49.426;11.182;2022-10-23T04:10:45;2.87;;;2.40;;
11537;SDS011;50159;49.426;11.182;2022-10-23T04:13:12;8.77;;;2.60;;
11537;SDS011;50159;49.426;11.182;2022-10-23T04:15:39;5.00;;;2.80;;
11537;SDS011;50159;49.426;11.182;2022-10-23T04:18:05;2.73;;;2.33;;
11537;SDS011;50159;49.426;11.182;2022-10-23T04:20:32;7.13;;;2.57;;
11537;SDS011;50159;49.426;11.182;2022-10-23T04:22:59;7.70;;;2.37;;
11537;SDS011;50159;49.426;11.182;2022-10-23T04:25:26;4.63;;;2.63;;
11537;SDS011;50159;49.426;11.182;2022-10-23T04:27:52;3.07;;;2.43;;
11537;SDS011;50159;49.426;11.182;2022-10-23T04:30:19;3.50;;;2.40;;
11537;SDS011;50159;49.426;11.182;2022-10-23T04:32:48;4.17;;;2.50;;
11537;SDS011;50159;49.426;11.182;2022-10-23T04:35:17;8.17;;;2.93;;
11537;SDS011;50159;49.426;11.182;2022-10-23T04:37:44;3.50;;;2.30;;
11537;SDS011;50159;49.426;11.182;2022-10-23T04:40:11;4.03;;;2.20;;
11537;SDS011;50159;49.426;11.182;2022-10-23T04:42:38;1.80;;;1.80;;
11537;SDS011;50159;49.426;11.182;2022-10-23T04:45:05;2.17;;;2.10;;
11537;SDS011;50159;49.426;11.182;2022-10-23T04:47:32;4.50;;;2.60;;
11537;SDS011;50159;49.426;11.182;2022-10-23T04:49:59;5.03;;;2.40;;
11537;SDS011;50159;49.426;11.182;2022-10-23T04:52:26;8.10;;;2.67;;
11537;SDS011;50159;49.426;11.182;2022-10-23T04:54:53;3.33;;;2.60;;
11537;SDS011;50159;49.426;11.182;2022-10-23T04:57:19;3.30;;;2.80;;
11537;SDS011;50159;49.426;11.182;2022-10-23T04:59:46;4.77;;;2.50;;
11537;SDS011;50159;49.426;11.182;2022-10-23T05:02:13;2.60;;;2.40;;
11537;SDS011;50159;49.426;11.182;2022-10-23T05:04:40;3.97;;;2.70;;
11537;SDS011;50159;49.426;11.182;2022-10-23T05:07:07;3.23;;;3.00;;
11537;SDS011;50159;49.426;11.182;2022-10-23T05:09:33;3.43;;;3.23;;
11537;SDS011;50159;49.426;11.182;2022-10-23T05:12:01;3.03;;;2.83;;
11537;SDS011;50159;49.426;11.182;2022-10-23T05:14:27;3.67;;;3.30;;
11537;SDS011;50159;49.426;11.182;2022-10-23T05:16:55;12.00;;;3.50;;
11537;SDS011;50159;49.426;11.182;2022-10-23T05:19:36;3.20;;;3.00;;
11537;SDS011;50159;49.426;11.182;2022-10-23T05:22:08;5.13;;;3.27;;
11537;SDS011;50159;49.426;11.182;2022-10-23T05:24:38;3.53;;;3.00;;
11537;SDS011;50159;49.426;11.182;2022-10-23T05:27:05;7.10;;;3.30;;
11537;SDS011;50159;49.426;11.182;2022-10-23T05:29:32;5.47;;;3.50;;
11537;SDS011;50159;49.426;11.182;2022-10-23T05:31:59;7.37;;;3.43;;
11537;SDS011;50159;49.426;11.182;2022-10-23T05:34:30;4.13;;;3.73;;
11537;SDS011;50159;49.426;11.182;2022-10-23T05:37:01;3.43;;;3.10;;
11537;SDS011;50159;49.426;11.182;2022-10-23T05:39:32;5.33;;;3.00;;
11537;SDS011;50159;49.426;11.182;2022-10-23T05:41:59;5.70;;;3.43;;
11537;SDS011;50159;49.426;11.182;2022-10-23T05:44:26;3.73;;;3.37;;
11537;SDS011;50159;49.426;11.182;2022-10-23T05:46:53;4.03;;;3.67;;
11537;SDS011;50159;49.426;11.182;2022-10-23T05:49:20;4.53;;;3.20;;
11537;SDS011;50159;49.426;11.182;2022-10-23T05:51:49;4.83;;;3.40;;
11537;SDS011;50159;49.426;11.182;2022-10-23T05:54:16;2.90;;;2.80;;
11537;SDS011;50159;49.426;11.182;2022-10-23T05:56:43;3.97;;;2.90;;
11537;SDS011;50159;49.426;11.182;2022-10-23T05:59:10;4.10;;;3.40;;
11537;SDS011;50159;49.426;11.182;2022-10-23T06:01:37;8.43;;;2.93;;
11537;SDS011;50159;49.426;11.182;2022-10-23T06:04:04;5.70;;;3.53;;
11537;SDS011;50159;49.426;11.182;2022-10-23T06:06:30;3.60;;;3.30;;
11537;SDS011;50159;49.426;11.182;2022-10-23T06:08:57;3.83;;;3.13;;
11537;SDS011;50159;49.426;11.182;2022-10-23T06:11:24;3.03;;;2.83;;
11537;SDS011;50159;49.426;11.182;2022-10-23T06:13:51;4.07;;;3.40;;
11537;SDS011;50159;49.426;11.182;2022-10-23T06:16:19;2.77;;;2.67;;
11537;SDS011;50159;49.426;11.182;2022-10-23T06:18:50;2.83;;;2.67;;
11537;SDS011;50159;49.426;11.182;2022-10-23T06:21:17;2.70;;;2.60;;
11537;SDS011;50159;49.426;11.182;2022-10-23T06:23:45;3.53;;;3.27;;
11537;SDS011;50159;49.426;11.182;2022-10-23T06:26:13;4.13;;;2.70;;
11537;SDS011;50159;49.426;11.182;2022-10-23T06:28:42;2.90;;;2.77;;
11537;SDS011;50159;49.426;11.182;2022-10-23T06:31:13;3.00;;;2.90;;
11537;SDS011;50159;49.426;11.182;2022-10-23T06:33:44;2.53;;;2.40;;
11537;SDS011;50159;49.426;11.182;2022-10-23T06:36:11;2.60;;;2.40;;
11537;SDS011;50159;49.426;11.182;2022-10-23T06:38:38;3.10;;;3.00;;
11537;SDS011;50159;49.426;11.182;2022-10-23T06:41:06;2.77;;;2.60;;
11537;SDS011;50159;49.426;11.182;2022-10-23T06:43:39;2.83;;;2.70;;
11537;SDS011;50159;49.426;11.182;2022-10-23T06:46:07;2.83;;;2.63;;
11537;SDS011;50159;49.426;11.182;2022-10-23T06:48:35;2.70;;;2.60;;
11537;SDS011;50159;49.426;11.182;2022-10-23T06:51:05;2.70;;;2.60;;
11537;SDS011;50159;49.426;11.182;2022-10-23T06:53:35;2.73;;;2.63;;
11537;SDS011;50159;49.426;11.182;2022-10-23T06:56:03;2.47;;;2.37;;
11537;SDS011;50159;49.426;11.182;2022-10-23T06:58:33;2.70;;;2.50;;
11537;SDS011;50159;49.426;11.182;2022-10-23T07:01:02;2.40;;;2.30;;
11537;SDS011;50159;49.426;11.182;2022-10-23T07:03:33;2.03;;;1.93;;
11537;SDS011;50159;49.426;11.182;2022-10-23T07:06:01;2.73;;;2.53;;
11537;SDS011;50159;49.426;11.182;2022-10-23T07:08:33;3.10;;;3.00;;
11537;SDS011;50159;49.426;11.182;2022-10-23T07:11:04;3.20;;;3.00;;
11537;SDS011;50159;49.426;11.182;2022-10-23T07:13:34;2.97;;;2.77;;
11537;SDS011;50159;49.426;11.182;2022-10-23T07:16:15;2.90;;;2.80;;
11537;SDS011;50159;49.426;11.182;2022-10-23T07:18:45;2.87;;;2.67;;
11537;SDS011;50159;49.426;11.182;2022-10-23T07:21:14;3.20;;;3.10;;
11537;SDS011;50159;49.426;11.182;2022-10-23T07:23:41;2.63;;;2.53;;
11537;SDS011;50159;49.426;11.182;2022-10-23T07:26:12;2.63;;;2.43;;
11537;SDS011;50159;49.426;11.182;2022-10-23T07:28:41;2.37;;;2.27;;
11537;SDS011;50159;49.426;11.182;2022-10-23T07:31:10;2.07;;;1.97;;
11537;SDS011;50159;49.426;11.182;2022-10-23T07:33:37;2.47;;;2.37;;
11537;SDS011;50159;49.426;11.182;2022-10-23T07:36:05;2.20;;;2.10;;
11537;SDS011;50159;49.426;11.182;2022-10-23T07:38:33;1.97;;;1.97;;
11537;SDS011;50159;49.426;11.182;2022-10-23T07:41:00;2.13;;;2.10;;
11537;SDS011;50159;49.426;11.182;2022-10-23T07:43:27;1.80;;;1.70;;
11537;SDS011;50159;49.426;11.182;2022-10-23T07:45:54;2.40;;;2.30;;
11537;SDS011;50159;49.426;11.182;2022-10-23T07:48:21;2.10;;;2.10;;
11537;SDS011;50159;49.426;11.182;2022-10-23T07:50:49;3.10;;;2.90;;
11537;SDS011;50159;49.426;11.182;2022-10-23T07:53:20;2.20;;;2.20;;
11537;SDS011;50159;49.426;11.182;2022-10-23T07:55:57;3.00;;;2.43;;
11537;SDS011;50159;49.426;11.182;2022-10-23T07:58:27;2.40;;;2.30;;
11537;SDS011;50159;49.426;11.182;2022-10-23T08:00:56;2.40;;;2.30;;
11537;SDS011;50159;49.426;11.182;2022-10-23T08:03:29;2.30;;;2.20;;
11537;SDS011;50159;49.426;11.182;2022-10-23T08:05:58;2.37;;;2.27;;
11537;SDS011;50159;49.426;11.182;2022-10-23T08:08:25;2.43;;;2.30;;
11537;SDS011;50159;49.426;11.182;2022-10-23T08:10:53;3.00;;;2.80;;
11537;SDS011;50159;49.426;11.182;2022-10-23T08:13:21;2.50;;;2.40;;
11537;SDS011;50159;49.426;11.182;2022-10-23T08:15:49;2.20;;;2.10;;
11537;SDS011;50159;49.426;11.182;2022-10-23T08:18:18;2.33;;;2.23;;
11537;SDS011;50159;49.426;11.182;2022-10-23T08:20:45;2.20;;;2.10;;
11537;SDS011;50159;49.426;11.182;2022-10-23T08:23:17;2.47;;;2.27;;
11537;SDS011;50159;49.426;11.182;2022-10-23T08:25:45;2.30;;;2.20;;
11537;SDS011;50159;49.426;11.182;2022-10-23T08:28:12;2.23;;;2.13;;
11537;SDS011;50159;49.426;11.182;2022-10-23T08:30:40;2.43;;;2.30;;
11537;SDS011;50159;49.426;11.182;2022-10-23T08:33:09;2.20;;;2.10;;
11537;SDS011;50159;49.426;11.182;2022-10-23T08:35:43;2.30;;;2.20;;
11537;SDS011;50159;49.426;11.182;2022-10-23T08:38:09;2.60;;;2.50;;
11537;SDS011;50159;49.426;11.182;2022-10-23T08:40:37;2.40;;;2.20;;
11537;SDS011;50159;49.426;11.182;2022-10-23T08:45:42;2.63;;;2.13;;
11537;SDS011;50159;49.426;11.182;2022-10-23T08:51:13;2.00;;;1.90;;
11537;SDS011;50159;49.426;11.182;2022-10-23T08:56:27;2.13;;;1.93;;
11537;SDS011;50159;49.426;11.182;2022-10-23T08:59:10;1.73;;;1.73;;
11537;SDS011;50159;49.426;11.182;2022-10-23T09:02:03;2.00;;;1.90;;
11537;SDS011;50159;49.426;11.182;2022-10-23T09:04:47;1.70;;;1.70;;
11537;SDS011;50159;49.426;11.182;2022-10-23T09:09:54;2.20;;;2.10;;
11537;SDS011;50159;49.426;11.182;2022-10-23T09:12:50;2.23;;;2.13;;
11537;SDS011;50159;49.426;11.182;2022-10-23T09:15:27;3.63;;;1.97;;
11537;SDS011;50159;49.426;11.182;2022-10-23T09:18:12;1.60;;;1.60;;
11537;SDS011;50159;49.426;11.182;2022-10-23T09:20:43;1.90;;;1.77;;
11537;SDS011;50159;49.426;11.182;2022-10-23T09:25:45;1.50;;;1.40;;
11537;SDS011;50159;49.426;11.182;2022-10-23T09:28:26;1.70;;;1.60;;
11537;SDS011;50159;49.426;11.182;2022-10-23T09:31:06;1.80;;;1.70;;
11537;SDS011;50159;49.426;11.182;2022-10-23T09:33:36;1.67;;;1.67;;
11537;SDS011;50159;49.426;11.182;2022-10-23T09:41:12;1.37;;;1.30;;
11537;SDS011;50159;49.426;11.182;2022-10-23T09:44:00;1.77;;;1.70;;
11537;SDS011;50159;49.426;11.182;2022-10-23T09:46:38;1.27;;;1.27;;
11537;SDS011;50159;49.426;11.182;2022-10-23T09:49:21;1.70;;;1.60;;
11537;SDS011;50159;49.426;11.182;2022-10-23T09:52:04;1.20;;;1.20;;
11537;SDS011;50159;49.426;11.182;2022-10-23T09:55:00;4.03;;;1.70;;
11537;SDS011;50159;49.426;11.182;2022-10-23T09:57:43;1.60;;;1.60;;
11537;SDS011;50159;49.426;11.182;2022-10-23T10:02:58;6.27;;;1.40;;
11537;SDS011;50159;49.426;11.182;2022-10-23T10:05:33;1.30;;;1.30;;
11537;SDS011;50159;49.426;11.182;2022-10-23T10:08:09;2.97;;;1.50;;
11537;SDS011;50159;49.426;11.182;2022-10-23T10:16:28;2.90;;;2.70;;
11537;SDS011;50159;49.426;11.182;2022-10-23T10:19:00;6.30;;;5.23;;
11537;SDS011;50159;49.426;11.182;2022-10-23T10:28:08;1.70;;;1.70;;
11537;SDS011;50159;49.426;11.182;2022-10-23T10:31:47;2.00;;;1.97;;
11537;SDS011;50159;49.426;11.182;2022-10-23T10:34:46;2.23;;;2.13;;
11537;SDS011;50159;49.426;11.182;2022-10-23T10:45:42;1.50;;;1.50;;
11537;SDS011;50159;49.426;11.182;2022-10-23T10:56:45;1.60;;;1.50;;
11537;SDS011;50159;49.426;11.182;2022-10-23T11:05:21;2.30;;;2.20;;
11537;SDS011;50159;49.426;11.182;2022-10-23T11:08:27;2.97;;;2.53;;
11537;SDS011;50159;49.426;11.182;2022-10-23T11:11:21;2.27;;;2.17;;
11537;SDS011;50159;49.426;11.182;2022-10-23T11:13:57;2.13;;;2.03;;
11537;SDS011;50159;49.426;11.182;2022-10-23T11:16:31;1.90;;;1.80;;
11537;SDS011;50159;49.426;11.182;2022-10-23T11:19:23;1.83;;;1.83;;
11537;SDS011;50159;49.426;11.182;2022-10-23T11:22:15;3.57;;;3.00;;
11537;SDS011;50159;49.426;11.182;2022-10-23T11:28:21;1.60;;;1.60;;
11537;SDS011;50159;49.426;11.182;2022-10-23T11:37:17;1.50;;;1.40;;
11537;SDS011;50159;49.426;11.182;2022-10-23T11:47:58;1.30;;;1.20;;
11537;SDS011;50159;49.426;11.182;2022-10-23T11:50:32;1.10;;;1.10;;
11537;SDS011;50159;49.426;11.182;2022-10-23T11:53:22;1.40;;;1.40;;
11537;SDS011;50159;49.426;11.182;2022-10-23T11:58:41;1.47;;;1.40;;
11537;SDS011;50159;49.426;11.182;2022-10-23T12:01:19;1.63;;;1.53;;
11537;SDS011;50159;49.426;11.182;2022-10-23T12:06:44;1.33;;;1.30;;
11537;SDS011;50159;49.426;11.182;2022-10-23T12:22:19;1.90;;;1.50;;
11537;SDS011;50159;49.426;11.182;2022-10-23T12:24:55;1.97;;;1.87;;
11537;SDS011;50159;49.426;11.182;2022-10-23T12:27:44;1.33;;;1.33;;
11537;SDS011;50159;49.426;11.182;2022-10-23T12:31:15;2.17;;;1.40;;
11537;SDS011;50159;49.426;11.182;2022-10-23T12:34:07;1.33;;;1.33;;
11537;SDS011;50159;49.426;11.182;2022-10-23T12:36:58;1.43;;;1.43;;
11537;SDS011;50159;49.426;11.182;2022-10-23T12:39:59;1.20;;;1.20;;
11537;SDS011;50159;49.426;11.182;2022-10-23T12:42:27;1.27;;;1.27;;
11537;SDS011;50159;49.426;11.182;2022-10-23T12:44:59;1.23;;;1.23;;
11537;SDS011;50159;49.426;11.182;2022-10-23T12:47:35;1.40;;;1.23;;
11537;SDS011;50159;49.426;11.182;2022-10-23T12:50:13;1.30;;;1.30;;
11537;SDS011;50159;49.426;11.182;2022-10-23T12:52:52;1.23;;;1.23;;
11537;SDS011;50159;49.426;11.182;2022-10-23T12:58:31;1.43;;;1.40;;
11537;SDS011;50159;49.426;11.182;2022-10-23T13:01:03;1.70;;;1.60;;
11537;SDS011;50159;49.426;11.182;2022-10-23T13:03:32;1.30;;;1.30;;
11537;SDS011;50159;49.426;11.182;2022-10-23T13:06:00;1.30;;;1.30;;
11537;SDS011;50159;49.426;11.182;2022-10-23T13:08:33;2.00;;;1.90;;
11537;SDS011;50159;49.426;11.182;2022-10-23T13:11:06;1.70;;;1.70;;
11537;SDS011;50159;49.426;11.182;2022-10-23T13:13:43;2.60;;;1.80;;
11537;SDS011;50159;49.426;11.182;2022-10-23T13:16:21;1.40;;;1.40;;
11537;SDS011;50159;49.426;11.182;2022-10-23T13:18:50;1.47;;;1.47;;
11537;SDS011;50159;49.426;11.182;2022-10-23T13:21:23;1.93;;;1.83;;
11537;SDS011;50159;49.426;11.182;2022-10-23T13:23:53;2.17;;;2.07;;
11537;SDS011;50159;49.426;11.182;2022-10-23T13:26:29;1.60;;;1.60;;
11537;SDS011;50159;49.426;11.182;2022-10-23T13:29:26;1.97;;;1.97;;
11537;SDS011;50159;49.426;11.182;2022-10-23T13:32:11;2.23;;;2.03;;
11537;SDS011;50159;49.426;11.182;2022-10-23T13:34:50;1.67;;;1.67;;
11537;SDS011;50159;49.426;11.182;2022-10-23T13:37:40;1.80;;;1.70;;
11537;SDS011;50159;49.426;11.182;2022-10-23T13:40:18;1.73;;;1.63;;
11537;SDS011;50159;49.426;11.182;2022-10-23T13:42:53;1.70;;;1.70;;
11537;SDS011;50159;49.426;11.182;2022-10-23T13:45:22;1.73;;;1.73;;
11537;SDS011;50159;49.426;11.182;2022-10-23T13:47:51;1.97;;;1.87;;
11537;SDS011;50159;49.426;11.182;2022-10-23T13:50:18;1.80;;;1.70;;
11537;SDS011;50159;49.426;11.182;2022-10-23T13:52:45;1.73;;;1.63;;
11537;SDS011;50159;49.426;11.182;2022-10-23T13:55:21;1.77;;;1.77;;
11537;SDS011;50159;49.426;11.182;2022-10-23T13:57:51;2.00;;;1.77;;
11537;SDS011;50159;49.426;11.182;2022-10-23T14:00:18;2.07;;;1.97;;
11537;SDS011;50159;49.426;11.182;2022-10-23T14:02:45;1.70;;;1.70;;
11537;SDS011;50159;49.426;11.182;2022-10-23T14:05:12;2.30;;;2.20;;
11537;SDS011;50159;49.426;11.182;2022-10-23T14:07:39;1.70;;;1.70;;
11537;SDS011;50159;49.426;11.182;2022-10-23T14:10:05;2.67;;;2.47;;
11537;SDS011;50159;49.426;11.182;2022-10-23T14:12:39;2.00;;;1.80;;
11537;SDS011;50159;49.426;11.182;2022-10-23T14:15:09;2.20;;;2.10;;
11537;SDS011;50159;49.426;11.182;2022-10-23T14:17:37;2.13;;;2.13;;
11537;SDS011;50159;49.426;11.182;2022-10-23T14:20:04;2.37;;;2.27;;
11537;SDS011;50159;49.426;11.182;2022-10-23T14:22:32;11.73;;;2.23;;
11537;SDS011;50159;49.426;11.182;2022-10-23T14:24:58;2.53;;;2.40;;
11537;SDS011;50159;49.426;11.182;2022-10-23T14:27:25;2.83;;;2.67;;
11537;SDS011;50159;49.426;11.182;2022-10-23T14:29:52;3.07;;;2.80;;
11537;SDS011;50159;49.426;11.182;2022-10-23T14:32:19;2.30;;;2.20;;
11537;SDS011;50159;49.426;11.182;2022-10-23T14:34:48;2.60;;;2.40;;
11537;SDS011;50159;49.426;11.182;2022-10-23T14:37:18;4.10;;;2.73;;
11537;SDS011;50159;49.426;11.182;2022-10-23T14:39:46;2.53;;;2.43;;
11537;SDS011;50159;49.426;11.182;2022-10-23T14:42:15;2.53;;;2.43;;
11537;SDS011;50159;49.426;11.182;2022-10-23T14:44:43;2.70;;;2.60;;
11537;SDS011;50159;49.426;11.182;2022-10-23T14:47:10;2.07;;;2.07;;
11537;SDS011;50159;49.426;11.182;2022-10-23T14:49:36;2.27;;;2.20;;
11537;SDS011;50159;49.426;11.182;2022-10-23T14:52:05;2.90;;;2.80;;
11537;SDS011;50159;49.426;11.182;2022-10-23T14:54:32;2.57;;;2.47;;
11537;SDS011;50159;49.426;11.182;2022-10-23T14:57:01;2.80;;;2.70;;
11537;SDS011;50159;49.426;11.182;2022-10-23T14:59:29;2.40;;;2.30;;
11537;SDS011;50159;49.426;11.182;2022-10-23T15:01:56;2.83;;;2.73;;
11537;SDS011;50159;49.426;11.182;2022-10-23T15:04:23;2.50;;;2.40;;
11537;SDS011;50159;49.426;11.182;2022-10-23T15:06:50;2.33;;;2.23;;
11537;SDS011;50159;49.426;11.182;2022-10-23T15:09:17;2.80;;;2.60;;
11537;SDS011;50159;49.426;11.182;2022-10-23T15:11:45;2.70;;;2.60;;
11537;SDS011;50159;49.426;11.182;2022-10-23T15:14:13;3.07;;;2.80;;
11537;SDS011;50159;49.426;11.182;2022-10-23T15:16:39;2.50;;;2.37;;
11537;SDS011;50159;49.426;11.182;2022-10-23T15:19:11;2.77;;;2.63;;
11537;SDS011;50159;49.426;11.182;2022-10-23T15:21:44;3.30;;;3.00;;
11537;SDS011;50159;49.426;11.182;2022-10-23T15:24:12;3.17;;;2.90;;
11537;SDS011;50159;49.426;11.182;2022-10-23T15:26:41;2.87;;;2.70;;
11537;SDS011;50159;49.426;11.182;2022-10-23T15:29:09;5.03;;;3.10;;
11537;SDS011;50159;49.426;11.182;2022-10-23T15:34:03;6.33;;;3.20;;
11537;SDS011;50159;49.426;11.182;2022-10-23T15:36:31;3.60;;;3.40;;
11537;SDS011;50159;49.426;11.182;2022-10-23T15:38:59;3.30;;;3.13;;
11537;SDS011;50159;49.426;11.182;2022-10-23T15:41:27;4.10;;;3.80;;
11537;SDS011;50159;49.426;11.182;2022-10-23T15:43:59;3.90;;;3.70;;
11537;SDS011;50159;49.426;11.182;2022-10-23T15:46:28;3.10;;;2.90;;
11537;SDS011;50159;49.426;11.182;2022-10-23T15:48:59;4.03;;;3.13;;
11537;SDS011;50159;49.426;11.182;2022-10-23T15:51:25;3.17;;;3.00;;
11537;SDS011;50159;49.426;11.182;2022-10-23T15:53:53;3.50;;;3.27;;
11537;SDS011;50159;49.426;11.182;2022-10-23T15:56:24;4.73;;;3.50;;
11537;SDS011;50159;49.426;11.182;2022-10-23T15:58:51;4.03;;;3.50;;
11537;SDS011;50159;49.426;11.182;2022-10-23T16:01:18;3.23;;;3.03;;
11537;SDS011;50159;49.426;11.182;2022-10-23T16:03:45;3.63;;;3.43;;
11537;SDS011;50159;49.426;11.182;2022-10-23T16:06:13;3.73;;;3.43;;
11537;SDS011;50159;49.426;11.182;2022-10-23T16:08:43;3.43;;;3.23;;
11537;SDS011;50159;49.426;11.182;2022-10-23T16:11:11;3.70;;;3.50;;
11537;SDS011;50159;49.426;11.182;2022-10-23T16:13:45;3.87;;;3.63;;
11537;SDS011;50159;49.426;11.182;2022-10-23T16:16:12;3.60;;;3.40;;
11537;SDS011;50159;49.426;11.182;2022-10-23T16:18:40;3.33;;;3.17;;
11537;SDS011;50159;49.426;11.182;2022-10-23T16:21:15;4.60;;;4.10;;
11537;SDS011;50159;49.426;11.182;2022-10-23T16:23:51;5.23;;;3.77;;
11537;SDS011;50159;49.426;11.182;2022-10-23T16:26:20;4.40;;;4.00;;
11537;SDS011;50159;49.426;11.182;2022-10-23T16:28:51;3.77;;;3.40;;
11537;SDS011;50159;49.426;11.182;2022-10-23T16:31:21;3.83;;;3.60;;
11537;SDS011;50159;49.426;11.182;2022-10-23T16:33:49;3.77;;;3.57;;
11537;SDS011;50159;49.426;11.182;2022-10-23T16:36:17;4.60;;;4.27;;
11537;SDS011;50159;49.426;11.182;2022-10-23T16:38:45;4.40;;;4.00;;
11537;SDS011;50159;49.426;11.182;2022-10-23T16:41:12;4.53;;;4.20;;
11537;SDS011;50159;49.426;11.182;2022-10-23T16:43:39;4.30;;;4.00;;
11537;SDS011;50159;49.426;11.182;2022-10-23T16:46:10;4.43;;;4.03;;
11537;SDS011;50159;49.426;11.182;2022-10-23T16:48:40;4.07;;;3.77;;
11537;SDS011;50159;49.426;11.182;2022-10-23T16:51:12;3.97;;;3.70;;
11537;SDS011;50159;49.426;11.182;2022-10-23T16:53:42;5.93;;;4.67;;
11537;SDS011;50159;49.426;11.182;2022-10-23T16:56:10;4.43;;;4.10;;
11537;SDS011;50159;49.426;11.182;2022-10-23T16:58:43;4.83;;;4.40;;
11537;SDS011;50159;49.426;11.182;2022-10-23T17:01:12;3.77;;;3.57;;
11537;SDS011;50159;49.426;11.182;2022-10-23T17:03:42;3.80;;;3.57;;
11537;SDS011;50159;49.426;11.182;2022-10-23T17:06:13;4.30;;;4.00;;
11537;SDS011;50159;49.426;11.182;2022-10-23T17:08:43;4.57;;;4.27;;
11537;SDS011;50159;49.426;11.182;2022-10-23T17:11:18;4.27;;;3.97;;
11537;SDS011;50159;49.426;11.182;2022-10-23T17:13:52;4.93;;;4.40;;
11537;SDS011;50159;49.426;11.182;2022-10-23T17:16:26;3.90;;;3.70;;